Flight Number: EUR3022 Duration: 11:00
Departure: Moscow Sheremetyevo (UUEE) at 08:00 Distance: 4386 Nm
Arrival: Indianapolis Intl Airport (KIND) at 19:00 Equipment: B777

Weather Information
Moscow / Sheremet'Ye , Russia (UUEE) 55-59N 037-30E May 24, 2018 - 05:30 PM EDT / 2018.05.24 2130 UTC
Wind: from the N (010 degrees) at 11 MPH (10 KT):0
Visibility: greater than 7 mile(s):0 Temperature: 57 F (14 C) Dew Point: 53 F (12 C) Relative Humidity: 87% Pressure (altimeter): 30.18 in. Hg (1022 hPa)
ob: UUEE 242130Z 01005MPS CAVOK 14/12 Q1022 R06R/CLRD62 NOSIG cycle: 21
Sunrise: 01:07 Sunset: 17:47 (UTC)

INDIANAPOLIS INTERNATIONAL AIRPORT , IN, United States (KIND) 39-43N 86-17W 242M May 24, 2018 - 04:54 PM EDT / 2018.05.24 2054 UTC
Wind: from the SE (130 degrees) at 8 MPH (7 KT):0
Visibility: 10 mile(s):0
Sky conditions: mostly clear Temperature: 82.9 F (28.3 C) Dew Point: 50.0 F (10.0 C) Relative Humidity: 31% Pressure (altimeter): 30.11 in. Hg (1019 hPa) Pressure tendency: 0.06 inches (1.9 hPa) lower than three hours ago
ob: KIND 242054Z 13007KT 10SM FEW250 28/10 A3011 RMK AO2 SLP190 T02830100 58019 cycle: 21
Sunrise: 10:26 Sunset: 00:57 (UTC)

TAF:2018/05/24 21:33 TAF AMD KIND 242030Z 2421/2524 15004KT P6SM FEW250 FM251400 21006KT P6SM FEW250

This route has never been flown.

Route map